SGT weather

Stuttgart Municipal Airport / Carl Humphrey Field
Stuttgart, Arkansas, United States

Public forecast

Using degrees Fahrenheit for public forecast. Weather courtesy of forecast.io.

Current aviation weather report (METAR) for Stuttgart Municipal Airport / Carl Humphrey Field

Retrieved 2020/08/06 20:56 UTC (20 minutes ago):

KSGT 062056Z AUTO 01004KT 10SM CLR 30/19 A3005 RMK AO2 SLP173 T03000189 56019

Closest aviation forecast (TAF) to Stuttgart Municipal Airport / Carl Humphrey Field

Closest forecast is Pine Bluff Regional Airport, Grider Field, 31.2 nm (57.8 km) SW. Retrieved 2020/08/06 18:22 UTC (3 hours ago):

TAF KPBF 061720Z 0618/0718 05007KT P6SM SCT045 SCT250 FM070100 VRB03KT P6SM BKN250 FM071600 11004KT P6SM OVC100